Palma de Mallorca, Spain

11:07 AM CET on December 03, 2016 (GMT +0100)
Es Pil.lari | | Change Station

Elev 3 ft 39.53 °N, 2.74 °E | Updated 11 minutes ago

Partly Cloudy
Partly Cloudy
55.3 °F
Feels Like 55.3 °F
N
1.2
Wind Variable Wind from SW
Gusts 1.2 mph

Today
High -- | Low -- °F
--% Chance of Precip.
Yesterday
High -- | Low -- °F
Precip. -- in
Pressure 30.01 in
Visibility 6.2 miles
Clouds Few 2500 ft
Dew Point 54 °F
Humidity 97%
Rainfall 0.00 in
Snow Depth Not available.
7:52 AM 5:25 PM
Waxing Crescent, 14% visible
METAR LEPA 031000Z VRB01KT 9999 FEW025 15/11 Q1016 NOSIG
Pressure 30.01 in
Visibility 6.2 miles
Clouds Few 2500 ft
Dew Point 54 °F
Humidity 97%
Rainfall 0.00 in
Snow Depth Not available.
7:52 AM 5:25 PM
Waxing Crescent, 14% visible
METAR LEPA 031000Z VRB01KT 9999 FEW025 15/11 Q1016 NOSIG

10-Day Weather Forecast

×

Almanac

Astronomy

Dec. 03, 2016 Rise Set
Actual Time
Civil Twilight
Nautical Twilight
Astronomical Twilight
Moon
Length of Visible Light
Length of Day
Tomorrow will be .
, % of the Moon is Illuminated

Today's Extremes

Country Highs Country Lows

Community

WunderPhotos

Upload Photos

1,955,434 photos uploaded!

WunderBlog® & News

Nearby

Air Quality

  Air Quality AQ Index Pollutant
Not available.

Snow Depth

Station Depth Elevation

Earthquake Activity

City Distance Mag. Time & Date
Minimum magnitude displayed is 2.5.

Coastal Water Temperatures

Place Temperature

Stations

Nearby Weather Stations

Station Location Temp. Windchill Dew Point Humidity Wind Precip. Elev Updated Type